Time;durP1;ratioP1;P1;durP2;ratioP2;P2;SDS_P1;SDS_P2;PMS_P1;PMS_P2;Temp;Humidity;BMP_temperature;BMP_pressure;BME280_temperature;BME280_humidity;BME280_pressure;Samples;Min_cycle;Max_cycle;Signal;HPM_P1;HPM_P2
2020/12/06 00:01:54;;;;;;;5.25;3.05;;;7.40;99.90;;;6.89;87.38;99005.84;4201665;28;20035;-75
2020/12/06 00:03:55;;;;;;;6.53;2.95;;;7.40;99.90;;;6.73;87.43;98999.88;4202918;28;20031;-75
2020/12/06 00:05:56;;;;;;;8.00;3.38;;;7.40;99.90;;;6.68;87.72;98988.13;4201217;28;20040;-75
2020/12/06 00:07:57;;;;;;;5.20;2.83;;;7.40;99.90;;;6.66;87.71;98995.34;4202698;28;20462;-75
2020/12/06 00:09:58;;;;;;;4.13;3.30;;;7.40;99.90;;;6.66;88.15;99000.56;4202616;28;20028;-75
2020/12/06 00:12:00;;;;;;;6.95;3.90;;;7.50;99.90;;;6.73;88.66;99013.00;4201379;28;20474;-75
2020/12/06 00:14:01;;;;;;;5.85;3.15;;;7.40;99.90;;;6.75;88.61;99016.28;4200559;28;20552;-75
2020/12/06 00:16:02;;;;;;;5.20;3.05;;;7.50;99.90;;;6.75;87.46;99008.41;4202459;28;20063;-75
2020/12/06 00:18:03;;;;;;;8.48;3.50;;;7.50;99.90;;;6.78;87.86;99008.06;4195667;28;20021;-75
2020/12/06 00:20:09;;;;;;;6.32;3.85;;;7.50;99.90;;;6.72;87.93;99019.22;4200828;28;20044;-75
2020/12/06 00:22:12;;;;;;;8.35;3.95;;;7.50;99.90;;;6.72;87.99;99024.47;4201082;28;20021;-75
2020/12/06 00:24:14;;;;;;;7.85;3.33;;;7.50;99.90;;;6.80;88.25;99032.28;4201095;28;20604;-75
2020/12/06 00:26:21;;;;;;;6.82;3.90;;;7.60;99.90;;;6.81;88.31;99029.47;4201407;28;20492;-75
2020/12/06 00:28:22;;;;;;;4.70;3.45;;;7.60;99.90;;;6.84;87.22;99028.34;4199985;28;20035;-75
2020/12/06 00:30:23;;;;;;;6.88;3.40;;;7.60;99.90;;;6.77;87.42;99037.88;4202518;28;20111;-75
2020/12/06 00:32:24;;;;;;;7.20;3.15;;;7.60;99.90;;;6.72;88.08;99032.34;4199264;28;20039;-75
2020/12/06 00:34:26;;;;;;;6.80;3.10;;;7.60;99.90;;;6.68;87.54;99024.81;4194892;28;20048;-74
2020/12/06 00:36:27;;;;;;;7.35;2.70;;;7.60;99.90;;;6.68;87.37;99047.59;4199623;28;20423;-75
2020/12/06 00:38:28;;;;;;;5.45;2.83;;;7.50;99.90;;;6.50;87.80;99029.50;4201071;28;20028;-74
2020/12/06 00:40:29;;;;;;;3.50;3.20;;;7.40;99.90;;;6.60;88.10;99048.44;4202274;28;20496;-75
2020/12/06 00:42:30;;;;;;;8.50;4.22;;;7.30;99.90;;;6.57;88.35;99043.53;4201746;28;20020;-74
2020/12/06 00:44:33;;;;;;;4.45;3.20;;;7.30;99.90;;;6.71;86.84;99067.38;4202057;28;20028;-74
2020/12/06 00:46:34;;;;;;;4.97;3.03;;;7.30;99.90;;;6.61;87.22;99041.38;4200997;28;20048;-74
2020/12/06 00:48:35;;;;;;;4.68;2.90;;;7.40;99.90;;;6.73;86.97;99052.28;4197254;28;20063;-74
2020/12/06 00:50:36;;;;;;;5.55;3.00;;;7.40;99.90;;;6.79;87.25;99057.66;4201570;28;20024;-75
2020/12/06 00:52:37;;;;;;;5.43;3.00;;;7.40;99.90;;;6.68;86.64;99040.53;4200930;28;20061;-75
2020/12/06 00:54:38;;;;;;;4.32;2.67;;;7.40;99.90;;;6.72;87.09;99061.16;4202044;28;20380;-75
2020/12/06 00:56:39;;;;;;;7.28;2.63;;;7.40;99.90;;;6.66;87.25;99058.22;4201899;28;20029;-75
2020/12/06 00:58:40;;;;;;;3.33;2.40;;;7.40;99.90;;;6.69;87.29;99062.28;4200650;28;20036;-75
2020/12/06 01:00:41;;;;;;;4.15;2.55;;;7.40;99.90;;;6.72;86.62;99069.81;4189287;28;20063;-75
2020/12/06 01:02:42;;;;;;;5.10;2.28;;;7.40;99.90;;;6.73;87.37;99073.25;4175766;28;20056;-75
2020/12/06 01:04:46;;;;;;;3.33;2.60;;;7.40;99.90;;;6.75;86.88;99073.91;4217226;28;20028;-75
2020/12/06 01:06:47;;;;;;;4.95;2.60;;;7.50;99.90;;;6.62;87.69;99064.81;4202094;28;20023;-75
2020/12/06 01:08:48;;;;;;;2.47;2.10;;;7.40;99.90;;;6.64;88.02;99082.97;4183746;28;20120;-75
2020/12/06 01:10:49;;;;;;;3.83;2.13;;;7.50;99.90;;;6.56;88.63;99072.53;4217458;28;20042;-75
2020/12/06 01:12:50;;;;;;;3.80;2.03;;;7.50;99.90;;;6.45;89.14;99075.53;4200504;28;20577;-75
2020/12/06 01:14:51;;;;;;;4.03;2.28;;;7.40;99.90;;;6.60;89.77;99090.34;4201595;28;20032;-74
2020/12/06 01:16:52;;;;;;;4.55;3.80;;;7.50;99.90;;;6.63;88.87;99084.75;4200608;28;20052;-75
2020/12/06 01:18:53;;;;;;;2.13;1.92;;;7.50;99.90;;;6.69;89.00;99094.56;4200542;28;20135;-75
2020/12/06 01:20:54;;;;;;;2.97;1.90;;;7.50;99.90;;;6.72;88.95;99101.25;4200289;28;20523;-75
2020/12/06 01:22:55;;;;;;;3.17;2.00;;;7.50;99.90;;;6.73;89.20;99100.28;4200541;28;20044;-75
2020/12/06 01:24:55;;;;;;;3.10;1.83;;;7.50;99.90;;;6.75;88.93;99105.38;4195668;28;20462;-74
2020/12/06 01:26:56;;;;;;;3.75;1.90;;;7.60;99.90;;;6.81;88.71;99117.78;4200413;28;20122;-75
2020/12/06 01:28:57;;;;;;;3.55;2.03;;;7.50;99.90;;;6.79;89.33;99109.25;4196646;28;20039;-75
2020/12/06 01:30:58;;;;;;;2.17;1.98;;;7.50;99.90;;;6.76;89.12;99109.59;4201661;28;20029;-75
2020/12/06 01:32:59;;;;;;;2.00;1.58;;;7.60;99.90;;;6.78;89.37;99120.75;4200050;28;20074;-75
2020/12/06 01:35:03;;;;;;;2.70;1.83;;;7.50;99.90;;;6.75;88.77;99118.47;4182184;28;20029;-75
2020/12/06 01:37:04;;;;;;;7.10;2.50;;;7.60;99.90;;;6.82;88.73;99132.50;4200449;28;20100;-75
2020/12/06 01:39:05;;;;;;;2.05;1.88;;;7.60;99.90;;;6.74;88.91;99127.31;4199827;28;20120;-75
2020/12/06 01:41:06;;;;;;;2.75;1.80;;;7.60;99.90;;;6.77;89.06;99133.03;4200405;28;20078;-75
2020/12/06 01:43:10;;;;;;;7.78;1.67;;;7.60;99.90;;;6.80;88.35;99137.09;4201681;28;20111;-75
2020/12/06 01:45:11;;;;;;;;;;;7.60;99.90;;;6.84;87.73;99148.88;4186935;28;20032;-74
2020/12/06 01:47:13;;;;;;;6.15;1.80;;;7.60;99.90;;;6.73;87.85;99133.53;4188991;28;19908;-75
2020/12/06 01:49:14;;;;;;;2.72;1.85;;;7.60;99.90;;;6.81;87.83;99149.22;4200130;28;20032;-75
2020/12/06 01:51:17;;;;;;;5.85;1.60;;;7.60;99.90;;;6.74;87.79;99149.09;4194470;28;20031;-75
2020/12/06 01:53:21;;;;;;;4.82;1.50;;;7.60;99.90;;;6.79;87.63;99153.81;4197818;28;20036;-75
2020/12/06 01:55:22;;;;;;;1.70;1.60;;;7.60;99.90;;;6.81;87.50;99154.47;4200292;28;20162;-75
2020/12/06 01:57:23;;;;;;;1.90;1.70;;;7.60;99.90;;;6.72;87.26;99152.88;4200275;28;20313;-75
2020/12/06 01:59:24;;;;;;;2.22;1.60;;;7.60;99.90;;;6.74;87.80;99159.56;4194928;28;20077;-75
2020/12/06 02:01:25;;;;;;;3.15;1.83;;;7.60;99.90;;;6.80;87.66;99165.94;4198096;28;20016;-75
2020/12/06 02:03:26;;;;;;;1.92;1.73;;;7.60;99.90;;;6.69;86.89;99165.31;4200197;28;20557;-75
2020/12/06 02:05:32;;;;;;;2.72;1.48;;;7.60;99.90;;;6.76;86.78;99172.47;4200063;28;20036;-75
2020/12/06 02:07:35;;;;;;;2.65;1.40;;;7.60;99.90;;;6.66;86.96;99177.91;4195440;28;20028;-75
2020/12/06 02:09:36;;;;;;;3.05;1.50;;;7.50;99.90;;;6.69;87.10;99194.13;4184836;28;20462;-75
2020/12/06 02:11:38;;;;;;;3.63;1.30;;;7.50;99.90;;;6.65;86.97;99192.03;4183641;28;20025;-75
2020/12/06 02:13:38;;;;;;;2.88;1.20;;;7.50;99.90;;;6.72;86.77;99197.41;4175417;28;20642;-76
2020/12/06 02:15:39;;;;;;;3.35;1.55;;;7.50;99.90;;;6.60;87.67;99187.28;4196796;28;20041;-76
2020/12/06 02:17:41;;;;;;;2.65;1.40;;;7.50;99.90;;;6.66;87.30;99194.47;4200005;28;20464;-76
2020/12/06 02:19:42;;;;;;;3.17;1.73;;;7.50;99.90;;;6.70;86.33;99192.31;4199394;28;20031;-76
2020/12/06 02:21:43;;;;;;;3.88;1.52;;;7.50;99.90;;;6.74;85.63;99198.06;4189352;28;20036;-76
2020/12/06 02:23:44;;;;;;;1.85;1.40;;;7.50;99.90;;;6.62;85.71;99200.22;4200038;28;20021;-75
2020/12/06 02:25:45;;;;;;;4.50;2.42;;;7.50;99.90;;;6.64;85.78;99201.69;4187608;28;20063;-75
2020/12/06 02:27:46;;;;;;;3.30;1.30;;;7.50;99.90;;;6.63;85.48;99210.53;4199069;28;20031;-76
2020/12/06 02:29:47;;;;;;;4.80;1.63;;;7.50;99.90;;;6.62;85.92;99197.59;4200317;28;20050;-76
2020/12/06 02:31:48;;;;;;;3.40;1.60;;;7.50;99.90;;;6.64;86.61;99212.16;4192255;28;20032;-75
2020/12/06 02:33:49;;;;;;;3.75;1.40;;;7.50;99.90;;;6.65;85.97;99213.81;4199936;28;20064;-76
2020/12/06 02:35:50;;;;;;;1.52;1.38;;;7.50;99.90;;;6.55;87.10;99221.03;4215470;28;20086;-75
2020/12/06 02:37:51;;;;;;;2.13;1.30;;;7.50;99.90;;;6.69;86.90;99235.22;4201246;28;20044;-76
2020/12/06 02:39:52;;;;;;;2.75;1.40;;;7.50;99.90;;;6.60;86.43;99226.56;4199915;28;20017;-76
2020/12/06 02:41:53;;;;;;;5.30;1.42;;;7.50;99.90;;;6.54;86.95;99222.00;4183404;28;20029;-75
2020/12/06 02:43:53;;;;;;;1.60;1.50;;;7.50;99.90;;;6.71;87.00;99238.50;4198984;28;20544;-75
2020/12/06 02:45:54;;;;;;;6.03;1.58;;;7.50;99.90;;;6.65;85.55;99242.63;4189963;28;20048;-76
2020/12/06 02:47:55;;;;;;;1.92;1.70;;;7.50;99.90;;;6.57;85.15;99242.63;4201738;28;20084;-76
2020/12/06 02:49:56;;;;;;;3.15;1.50;;;7.40;99.90;;;6.54;86.01;99237.72;4186127;28;20515;-76
2020/12/06 02:51:57;;;;;;;2.97;1.27;;;7.40;99.90;;;6.54;86.22;99232.47;4187865;28;20072;-76
2020/12/06 02:53:58;;;;;;;2.60;1.67;;;7.40;99.90;;;6.48;85.79;99242.84;4203117;28;20040;-76
2020/12/06 02:55:59;;;;;;;2.28;1.80;;;7.40;99.90;;;6.49;85.68;99242.66;4202955;28;20085;-76
2020/12/06 02:58:00;;;;;;;1.60;1.38;;;7.30;99.90;;;6.52;85.43;99241.50;4197928;28;20519;-76
2020/12/06 03:00:01;;;;;;;3.95;1.13;;;7.30;99.90;;;6.47;85.48;99242.00;4184471;28;20488;-76
2020/12/06 03:02:02;;;;;;;3.95;1.30;;;7.30;99.90;;;6.48;85.38;99235.75;4204069;28;20028;-76
2020/12/06 03:04:03;;;;;;;3.05;1.10;;;7.30;99.90;;;6.57;85.11;99252.31;4198047;28;20056;-76
2020/12/06 03:06:04;;;;;;;1.40;1.30;;;7.20;99.90;;;6.54;85.37;99256.06;4191558;28;20471;-76
2020/12/06 03:08:06;;;;;;;3.97;1.35;;;7.30;99.90;;;6.54;85.46;99250.81;4200819;28;20040;-76
2020/12/06 03:10:07;;;;;;;2.83;1.40;;;7.30;99.90;;;6.57;84.73;99241.84;4202883;28;20033;-76
2020/12/06 03:12:08;;;;;;;3.70;1.20;;;7.30;99.90;;;6.57;84.43;99247.06;4195283;28;20301;-76
2020/12/06 03:14:09;;;;;;;3.08;1.10;;;7.30;99.90;;;6.60;84.09;99251.97;4202718;28;20043;-75
2020/12/06 03:16:10;;;;;;;2.83;1.60;;;7.30;99.90;;;6.59;84.16;99245.09;4200667;28;20024;-76
2020/12/06 03:18:11;;;;;;;3.65;1.30;;;7.40;99.90;;;6.51;83.63;99235.44;4202500;28;20060;-75
2020/12/06 03:20:12;;;;;;;2.92;1.30;;;7.40;99.90;;;6.56;83.59;99258.53;4203668;28;20476;-75
2020/12/06 03:22:13;;;;;;;3.95;1.80;;;7.30;99.90;;;6.53;84.01;99245.75;4203817;28;20086;-76
2020/12/06 03:24:14;;;;;;;2.58;1.58;;;7.30;99.90;;;6.54;84.13;99266.53;4202050;28;20053;-75
2020/12/06 03:26:15;;;;;;;2.10;1.40;;;7.30;99.90;;;6.38;84.04;99244.78;4189635;28;20032;-76
2020/12/06 03:28:16;;;;;;;3.65;1.40;;;7.30;99.90;;;6.51;83.99;99256.38;4203722;28;20052;-76
2020/12/06 03:30:17;;;;;;;3.22;1.50;;;7.30;99.90;;;6.47;84.54;99257.72;4203690;28;20032;-76
2020/12/06 03:32:18;;;;;;;3.53;1.40;;;7.30;99.90;;;6.34;84.70;99262.63;4193987;28;20056;-76
2020/12/06 03:34:19;;;;;;;2.17;1.42;;;7.20;99.90;;;6.37;84.85;99270.16;4189360;28;20085;-76
2020/12/06 03:36:20;;;;;;;4.22;1.73;;;7.10;99.90;;;6.33;85.31;99270.66;4185428;28;20021;-76
2020/12/06 03:38:21;;;;;;;5.18;1.85;;;7.10;99.90;;;6.35;85.44;99281.78;4202291;28;20060;-76
2020/12/06 03:40:22;;;;;;;2.30;1.48;;;7.00;99.90;;;6.30;85.99;99292.75;4201934;28;20029;-76
2020/12/06 03:42:23;;;;;;;3.80;1.38;;;7.00;99.90;;;6.28;86.08;99297.34;4172622;28;20156;-75
2020/12/06 03:44:24;;;;;;;3.15;1.55;;;7.10;99.90;;;6.30;85.68;99284.09;4193790;28;20052;-76
2020/12/06 03:46:25;;;;;;;4.63;1.73;;;7.10;99.90;;;6.35;86.05;99300.94;4202129;28;20059;-76
2020/12/06 03:48:26;;;;;;;2.33;1.42;;;7.10;99.90;;;6.30;86.53;99308.44;4218884;28;20047;-76
2020/12/06 03:50:27;;;;;;;3.17;1.65;;;7.20;99.90;;;6.32;86.29;99306.50;4201857;28;20060;-76
2020/12/06 03:52:28;;;;;;;4.97;1.58;;;7.20;99.90;;;6.28;87.05;99294.72;4193373;28;20047;-76
2020/12/06 03:54:29;;;;;;;4.47;1.92;;;7.20;99.90;;;6.35;86.85;99311.41;4203276;28;20071;-76
2020/12/06 03:56:30;;;;;;;2.85;1.63;;;7.20;99.90;;;6.37;87.88;99321.72;4203107;28;20056;-76
2020/12/06 03:58:30;;;;;;;3.22;1.80;;;7.20;99.90;;;6.39;88.23;99317.94;4188230;28;20107;-76
2020/12/06 04:00:31;;;;;;;4.47;1.70;;;7.30;99.90;;;6.36;88.17;99317.47;4203228;28;20027;-76
2020/12/06 04:02:32;;;;;;;7.65;2.50;;;7.30;99.90;;;6.41;88.49;99329.09;4201864;28;20028;-76
2020/12/06 04:04:33;;;;;;;3.28;1.83;;;7.30;99.90;;;6.41;88.30;99339.56;4201448;28;20071;-75
2020/12/06 04:06:34;;;;;;;5.00;1.70;;;7.30;99.90;;;6.38;89.45;99339.91;4201695;28;20028;-76
2020/12/06 04:08:35;;;;;;;4.20;1.83;;;7.30;99.90;;;6.41;88.85;99344.00;4203138;28;20116;-75
2020/12/06 04:10:36;;;;;;;4.03;1.58;;;7.40;99.90;;;6.38;89.22;99332.03;4192290;28;20039;-75
2020/12/06 04:12:37;;;;;;;4.45;1.70;;;7.30;99.90;;;6.42;89.93;99350.88;4199329;28;20072;-76
2020/12/06 04:14:38;;;;;;;4.45;2.13;;;7.30;99.90;;;6.34;90.07;99348.22;4198652;28;20064;-76
2020/12/06 04:16:39;;;;;;;2.15;1.63;;;7.30;99.90;;;6.35;90.21;99357.75;4188201;28;20071;-76
2020/12/06 04:18:40;;;;;;;2.40;2.00;;;7.30;99.90;;;6.21;90.95;99359.22;4168466;28;20029;-76
2020/12/06 04:20:41;;;;;;;5.28;2.35;;;7.30;99.90;;;6.19;91.01;99355.09;4212736;28;20024;-76
2020/12/06 04:22:42;;;;;;;4.28;2.17;;;7.20;99.90;;;6.15;91.22;99353.78;4202606;28;20111;-76
2020/12/06 04:24:43;;;;;;;4.80;1.70;;;7.20;99.90;;;6.10;91.99;99343.78;4201502;28;20027;-76
2020/12/06 04:26:44;;;;;;;3.92;1.70;;;7.20;99.90;;;6.14;91.79;99339.88;4192747;28;20093;-76
2020/12/06 04:28:45;;;;;;;4.47;2.08;;;7.20;99.90;;;6.15;91.88;99349.38;4197272;28;20112;-76
2020/12/06 04:30:46;;;;;;;4.20;1.80;;;7.10;99.90;;;6.27;92.44;99360.34;4202526;28;20040;-76
2020/12/06 04:32:47;;;;;;;2.85;1.80;;;7.20;99.90;;;6.27;92.62;99368.22;4196634;28;20061;-76
2020/12/06 04:34:48;;;;;;;5.72;2.22;;;7.20;99.90;;;6.16;92.82;99384.22;4184611;28;20029;-76
2020/12/06 04:36:48;;;;;;;6.03;2.40;;;7.20;99.90;;;6.12;93.60;99373.28;4196998;28;20078;-76
2020/12/06 04:38:49;;;;;;;4.30;2.22;;;7.10;99.90;;;6.34;93.91;99380.47;4200050;28;20063;-76
2020/12/06 04:40:50;;;;;;;4.15;2.08;;;7.20;99.90;;;6.37;93.13;99371.47;4189176;28;20546;-76
2020/12/06 04:42:52;;;;;;;6.32;2.42;;;7.20;99.90;;;6.45;93.34;99384.59;4202453;28;20033;-76
2020/12/06 04:44:54;;;;;;;5.32;1.70;;;7.20;99.90;;;6.36;92.20;99369.88;4190067;28;20084;-76
2020/12/06 04:47:04;;;;;;;2.30;1.70;;;7.20;99.90;;;6.50;92.58;99384.94;4198909;28;20171;-76
2020/12/06 04:49:24;;;;;;;5.38;1.65;;;7.20;99.90;;;6.34;91.89;99367.38;4200945;28;20047;-76
2020/12/06 04:51:31;;;;;;;5.38;1.90;;;7.10;99.90;;;6.50;91.30;99385.75;4196342;28;20054;-76
2020/12/06 04:53:44;;;;;;;5.70;2.70;;;7.20;99.90;;;6.51;91.31;99374.25;4198509;28;20032;-76
2020/12/06 04:55:49;;;;;;;3.42;1.83;;;7.20;99.90;;;6.48;91.53;99398.16;4175657;28;20037;-76
2020/12/06 04:57:56;;;;;;;5.38;1.88;;;7.20;99.90;;;6.47;90.69;99391.31;4202226;28;20020;-76
2020/12/06 05:00:09;;;;;;;5.15;2.00;;;7.20;99.90;;;6.48;90.54;99386.91;4171177;28;20045;-76
2020/12/06 05:02:12;;;;;;;4.18;2.58;;;7.30;99.90;;;6.51;89.96;99384.75;4200864;28;20519;-76
2020/12/06 05:04:18;;;;;;;4.57;1.85;;;7.30;99.90;;;6.50;90.57;99396.22;4196041;28;20104;-76
2020/12/06 05:06:21;;;;;;;5.57;2.72;;;7.30;99.90;;;6.55;89.62;99396.53;4198732;28;20047;-76
2020/12/06 05:08:25;;;;;;;5.10;1.98;;;7.30;99.90;;;6.34;90.90;99396.19;4200878;28;20059;-76
2020/12/06 05:10:28;;;;;;;3.67;2.05;;;7.30;99.90;;;6.56;90.33;99411.28;4191436;28;20055;-76
2020/12/06 05:12:29;;;;;;;6.25;2.30;;;7.30;99.90;;;6.52;90.14;99412.59;4196286;28;20044;-76
2020/12/06 05:14:31;;;;;;;8.80;2.33;;;7.20;99.90;;;6.55;90.70;99403.59;4200593;28;20032;-76
2020/12/06 05:16:39;;;;;;;6.80;2.90;;;7.20;99.90;;;6.56;89.03;99395.56;4200666;28;20025;-77
2020/12/06 05:18:40;;;;;;;5.15;2.70;;;7.20;99.90;;;6.61;88.12;99422.09;4200707;28;20611;-76
2020/12/06 05:20:41;;;;;;;7.20;2.97;;;7.20;99.90;;;6.56;88.92;99429.63;4201581;28;20052;-76
2020/12/06 05:22:45;;;;;;;7.68;2.72;;;7.30;99.90;;;6.45;89.17;99422.06;4186465;28;20025;-76
2020/12/06 05:24:46;;;;;;;3.75;2.28;;;7.30;99.90;;;6.38;89.90;99438.59;4190065;28;20499;-76
2020/12/06 05:26:47;;;;;;;10.15;2.70;;;7.30;99.90;;;6.41;89.89;99436.47;4200587;28;20118;-76
2020/12/06 05:28:48;;;;;;;5.97;2.60;;;7.20;99.90;;;6.49;90.27;99440.91;4196730;28;20035;-76
2020/12/06 05:30:49;;;;;;;7.15;2.67;;;7.30;99.90;;;6.57;89.68;99444.34;4185739;28;20052;-76
2020/12/06 05:32:50;;;;;;;5.63;2.45;;;7.30;99.90;;;6.47;89.54;99451.56;4193562;28;20509;-76
2020/12/06 05:34:53;;;;;;;8.70;3.03;;;7.30;99.90;;;6.40;89.48;99442.69;4200246;28;20108;-76
2020/12/06 05:36:54;;;;;;;7.07;2.63;;;7.20;99.90;;;6.32;89.72;99441.88;4183824;28;20584;-76
2020/12/06 05:38:55;;;;;;;6.30;2.88;;;7.20;99.90;;;6.36;89.68;99443.19;4200405;28;20021;-76
2020/12/06 05:40:56;;;;;;;4.93;2.58;;;7.10;99.90;;;6.30;89.71;99444.63;4201786;28;20107;-76
2020/12/06 05:42:58;;;;;;;6.55;2.60;;;7.10;99.90;;;6.33;89.32;99439.06;4200512;28;20024;-76
2020/12/06 05:44:59;;;;;;;5.20;2.60;;;7.10;99.90;;;6.34;89.12;99450.38;4200450;28;20032;-76
2020/12/06 05:47:11;;;;;;;6.88;2.50;;;7.10;99.90;;;6.36;88.84;99453.66;4201619;28;20089;-76
2020/12/06 05:49:23;;;;;;;8.05;3.30;;;7.00;99.90;;;6.27;87.96;99446.78;4200021;28;20083;-76
2020/12/06 05:51:23;;;;;;;5.43;2.80;;;7.00;99.90;;;6.27;88.45;99452.84;4178324;28;20100;-76
2020/12/06 05:53:27;;;;;;;7.05;2.65;;;6.90;99.90;;;6.09;88.79;99441.66;4199166;28;20094;-76
2020/12/06 05:55:29;;;;;;;7.50;2.33;;;6.90;99.90;;;6.06;88.60;99449.81;4189771;28;20032;-76
2020/12/06 05:57:31;;;;;;;7.50;2.58;;;6.80;99.90;;;6.12;88.36;99447.38;4200540;28;20036;-76
2020/12/06 05:59:34;;;;;;;9.15;2.65;;;6.80;99.90;;;6.13;87.54;99437.72;4178688;28;20518;-76
2020/12/06 06:01:35;;;;;;;4.93;2.40;;;6.80;99.90;;;6.18;87.52;99460.81;4183498;28;20021;-76
2020/12/06 06:03:39;;;;;;;6.00;2.42;;;6.80;99.90;;;6.06;87.53;99452.44;4195435;28;20032;-76
2020/12/06 06:05:45;;;;;;;4.03;2.50;;;6.80;99.90;;;6.03;87.91;99458.00;4183399;28;20032;-76
2020/12/06 06:07:53;;;;;;;7.82;3.35;;;6.80;99.90;;;6.12;87.76;99465.69;4196213;28;20033;-76
2020/12/06 06:10:02;;;;;;;7.13;2.50;;;6.90;99.90;;;6.10;87.55;99462.41;4187034;28;20104;-76
2020/12/06 06:12:23;;;;;;;8.18;3.10;;;6.90;99.90;;;6.23;87.54;99477.69;4191494;28;20055;-76
2020/12/06 06:14:24;;;;;;;4.47;2.50;;;6.90;99.90;;;6.25;87.60;99475.72;4187143;28;20593;-76
2020/12/06 06:16:28;;;;;;;4.75;3.03;;;6.90;99.90;;;6.24;87.72;99481.97;4198583;28;20036;-76
2020/12/06 06:18:29;;;;;;;2.85;2.15;;;6.90;99.90;;;6.11;88.59;99471.09;4200174;28;20077;-76
2020/12/06 06:20:31;;;;;;;3.38;1.90;;;6.90;99.90;;;6.11;88.11;99479.78;4199850;28;20082;-76
2020/12/06 06:22:44;;;;;;;5.13;2.40;;;6.90;99.90;;;5.99;88.60;99477.59;4200527;28;20031;-76
2020/12/06 06:24:48;;;;;;;6.43;2.40;;;6.90;99.90;;;5.85;89.68;99475.56;4204898;28;20024;-76
2020/12/06 06:26:50;;;;;;;6.03;2.50;;;6.80;99.90;;;5.96;88.73;99488.38;4203409;28;20029;-76
2020/12/06 06:28:53;;;;;;;5.20;2.35;;;6.80;99.90;;;5.84;89.01;99484.38;4198526;28;20033;-76
2020/12/06 06:30:55;;;;;;;4.32;2.40;;;6.80;99.90;;;5.78;89.56;99466.66;4201833;28;20032;-76
2020/12/06 06:32:56;;;;;;;5.43;3.47;;;6.70;99.90;;;5.85;89.49;99478.16;4202845;28;20024;-76
2020/12/06 06:34:58;;;;;;;3.65;2.58;;;6.60;99.90;;;5.92;89.54;99500.94;4204272;28;20043;-76
2020/12/06 06:36:59;;;;;;;7.88;2.58;;;6.50;99.90;;;5.80;88.36;99493.50;4191357;28;20112;-76
2020/12/06 06:39:02;;;;;;;7.63;2.67;;;6.40;99.90;;;5.89;88.57;99489.97;4201556;28;20033;-76
2020/12/06 06:41:07;;;;;;;8.43;2.88;;;6.30;99.90;;;5.72;87.41;99470.75;4197601;28;20059;-76
2020/12/06 06:43:08;;;;;;;4.20;2.67;;;6.40;99.90;;;5.81;88.21;99495.16;4196000;28;20024;-76
2020/12/06 06:45:11;;;;;;;12.23;2.90;;;6.30;99.90;;;5.83;87.04;99491.38;4203151;28;20028;-76
2020/12/06 06:47:14;;;;;;;15.48;4.85;;;6.30;99.90;;;5.81;87.03;99476.81;4202652;28;20484;-76
2020/12/06 06:49:15;;;;;;;7.05;2.72;;;6.20;99.90;;;5.75;86.56;99488.75;4202719;28;20035;-76
2020/12/06 06:51:24;;;;;;;7.07;3.10;;;6.20;99.90;;;5.63;86.69;99491.78;4204234;28;20107;-76
2020/12/06 06:53:25;;;;;;;8.20;3.60;;;6.20;99.90;;;5.62;86.55;99490.94;4202034;28;20033;-76
2020/12/06 06:55:26;;;;;;;5.60;3.05;;;6.20;99.90;;;5.70;86.47;99503.28;4190638;28;20036;-76
2020/12/06 06:57:31;;;;;;;5.20;3.05;;;6.20;99.90;;;5.59;86.28;99497.31;4186306;28;20074;-76
2020/12/06 06:59:36;;;;;;;;;;;6.10;99.90;;;5.58;86.25;99485.19;4191767;28;20409;-76
2020/12/06 07:01:48;;;;;;;7.75;2.67;;;6.10;99.90;;;5.56;85.67;99486.34;4201650;28;19909;-76
2020/12/06 07:03:54;;;;;;;9.02;3.60;;;6.10;99.90;;;5.49;85.09;99485.34;4198839;28;20082;-76
2020/12/06 07:05:55;;;;;;;9.88;3.60;;;6.10;99.90;;;5.52;85.04;99498.94;4186090;28;20171;-76
2020/12/06 07:07:57;;;;;;;9.35;2.83;;;6.10;99.90;;;5.45;85.09;99495.28;4200392;28;20523;-76
2020/12/06 07:09:58;;;;;;;8.27;3.30;;;6.00;99.90;;;5.40;84.86;99492.31;4191773;28;20020;-76
2020/12/06 07:12:00;;;;;;;7.15;2.70;;;6.10;99.90;;;5.36;85.20;99496.19;4202548;28;20059;-76
2020/12/06 07:14:01;;;;;;;7.05;2.90;;;6.00;99.90;;;5.47;84.53;99503.78;4196987;28;20119;-76
2020/12/06 07:16:09;;;;;;;9.20;3.45;;;5.90;99.90;;;5.35;84.17;99491.09;4202234;28;20056;-76
2020/12/06 07:18:10;;;;;;;6.53;2.65;;;5.90;99.90;;;5.27;85.44;99501.50;4190897;28;20044;-76
2020/12/06 07:20:14;;;;;;;8.43;3.30;;;5.90;99.90;;;5.42;84.56;99511.28;4203420;28;20088;-76
2020/12/06 07:22:15;;;;;;;7.25;3.13;;;5.90;99.90;;;5.47;83.95;99522.09;4191763;28;20587;-76
2020/12/06 07:24:18;;;;;;;6.82;2.70;;;5.90;99.90;;;5.36;83.94;99503.22;4199124;28;20476;-76
2020/12/06 07:26:20;;;;;;;7.97;3.83;;;5.90;99.90;;;5.36;83.85;99518.91;4190276;28;20036;-76
2020/12/06 07:28:21;;;;;;;17.55;4.32;;;6.20;99.90;;;5.32;83.19;99521.00;4202420;28;20070;-76
2020/12/06 07:30:22;;;;;;;7.90;2.80;;;5.90;99.90;;;5.25;82.94;99512.13;4196944;28;20399;-76
2020/12/06 07:32:23;;;;;;;10.75;2.58;;;5.90;99.90;;;5.29;83.65;99513.44;4198599;28;20395;-76
2020/12/06 07:34:24;;;;;;;8.55;2.65;;;5.80;99.90;;;5.27;83.69;99522.44;4201319;28;20028;-76
2020/12/06 07:36:34;;;;;;;6.95;2.85;;;5.90;99.90;;;5.33;83.65;99535.72;4177101;28;20033;-76
2020/12/06 07:38:36;;;;;;;6.65;3.58;;;5.80;99.90;;;5.19;83.21;99524.97;4189969;28;20052;-76
2020/12/06 07:40:37;;;;;;;7.45;3.10;;;5.80;99.90;;;5.20;83.48;99532.66;4199544;28;20075;-76
2020/12/06 07:42:38;;;;;;;11.95;3.10;;;5.90;99.90;;;5.17;83.80;99532.16;4192683;28;20060;-76
2020/12/06 07:44:51;;;;;;;6.30;3.13;;;5.80;99.90;;;5.33;83.26;99547.97;4192915;28;20029;-76
2020/12/06 07:47:01;;;;;;;4.97;3.00;;;5.80;99.90;;;5.26;82.54;99542.50;4183068;28;20042;-76
2020/12/06 07:49:02;;;;;;;11.25;2.88;;;5.80;99.90;;;5.29;83.21;99542.22;4190706;28;20539;-76
2020/12/06 07:51:03;;;;;;;12.15;4.68;;;5.80;99.90;;;5.31;82.99;99555.97;4202148;28;20067;-76
2020/12/06 07:53:04;;;;;;;14.23;3.75;;;5.80;99.90;;;5.32;82.75;99554.16;4197752;28;20127;-76
2020/12/06 07:55:08;;;;;;;7.63;2.83;;;5.80;99.90;;;5.32;82.29;99547.13;4185293;28;20025;-76
2020/12/06 07:57:11;;;;;;;11.43;3.58;;;5.90;99.90;;;5.34;82.58;99541.78;4202134;28;20539;-76
2020/12/06 07:59:25;;;;;;;9.80;3.67;;;5.90;99.90;;;5.34;82.78;99549.63;4201988;28;20025;-76
2020/12/06 08:01:27;;;;;;;8.70;3.27;;;5.90;99.90;;;5.26;82.54;99545.13;4187194;28;20025;-76
2020/12/06 08:03:28;;;;;;;9.35;4.03;;;5.90;99.90;;;5.25;82.09;99545.28;4195144;28;20029;-76
2020/12/06 08:05:36;;;;;;;16.25;5.82;;;5.90;99.90;;;5.35;82.23;99554.69;4201579;28;20484;-76
2020/12/06 08:07:55;;;;;;;12.02;6.20;;;6.00;99.90;;;5.32;82.14;99562.00;4197443;28;20088;-76
2020/12/06 08:09:58;;;;;;;12.60;4.70;;;5.90;99.90;;;5.23;82.00;99562.91;4181276;28;20037;-76
2020/12/06 08:12:04;;;;;;;8.30;3.87;;;5.90;99.90;;;5.28;81.43;99565.91;4193323;28;20059;-76
2020/12/06 08:14:05;;;;;;;7.20;3.85;;;5.80;99.90;;;5.34;82.12;99575.75;4201398;28;20281;-76
2020/12/06 08:16:09;;;;;;;7.03;4.13;;;5.90;99.90;;;5.32;82.43;99560.22;4200411;28;20042;-76
2020/12/06 08:18:17;;;;;;;5.88;3.70;;;5.90;99.90;;;5.31;82.72;99568.22;4188678;28;20071;-76
2020/12/06 08:20:24;;;;;;;6.38;4.32;;;5.80;99.90;;;5.32;81.75;99570.66;4202568;28;20052;-76
2020/12/06 08:22:25;;;;;;;10.45;5.45;;;5.90;99.90;;;5.09;82.44;99566.88;4189552;28;20060;-76
2020/12/06 08:24:31;;;;;;;16.70;5.85;;;5.90;99.90;;;5.09;82.89;99569.50;4201187;28;20052;-75
2020/12/06 08:26:36;;;;;;;15.60;7.22;;;5.80;99.90;;;5.03;83.68;99570.91;4195582;28;20033;-76
2020/12/06 08:28:37;;;;;;;12.43;3.85;;;5.80;99.90;;;5.18;82.59;99571.22;4194625;28;20035;-76
2020/12/06 08:30:38;;;;;;;9.15;4.38;;;5.80;99.90;;;5.22;82.81;99567.34;4202491;28;20033;-76
2020/12/06 08:32:39;;;;;;;7.32;3.63;;;5.80;99.90;;;5.16;82.19;99551.44;4190109;28;20029;-75
2020/12/06 08:34:54;;;;;;;22.63;10.55;;;5.80;99.90;;;5.21;82.13;99568.28;4191899;28;20042;-76
2020/12/06 08:36:55;;;;;;;11.45;5.63;;;5.80;99.90;;;5.30;82.36;99570.00;4201094;28;20031;-76
2020/12/06 08:38:56;;;;;;;10.20;4.20;;;5.80;99.90;;;5.28;81.77;99566.72;4200548;28;20032;-76
2020/12/06 08:41:10;;;;;;;13.45;6.05;;;5.90;99.90;;;5.30;82.52;99577.84;4202431;28;20076;-77
2020/12/06 08:43:11;;;;;;;11.70;6.28;;;5.90;99.90;;;5.28;81.88;99576.38;4201010;28;20396;-76
2020/12/06 08:45:12;;;;;;;14.15;10.43;;;5.90;99.90;;;5.31;82.39;99587.34;4199817;28;20025;-75
2020/12/06 08:47:13;;;;;;;12.27;6.35;;;5.90;99.90;;;5.33;81.87;99588.00;4200889;28;20024;-76